createdAt,value
2018-10-19T00:00:53.146Z,102370.50
2018-10-19T00:01:53.409Z,102370.35
2018-10-19T00:02:53.790Z,102370.23
2018-10-19T00:03:54.064Z,102370.51
2018-10-19T00:04:54.361Z,102370.65
2018-10-19T00:05:54.772Z,102370.75
2018-10-19T00:06:55.628Z,102371.20
2018-10-19T00:07:56.000Z,102370.98
2018-10-19T00:08:55.250Z,102371.25
2018-10-19T00:09:55.567Z,102371.56
2018-10-19T00:10:57.378Z,102371.84
2018-10-19T00:11:57.959Z,102371.94
2018-10-19T00:12:58.259Z,102372.30
2018-10-19T00:13:58.940Z,102371.77
2018-10-19T00:14:59.489Z,102371.96
2018-10-19T00:15:58.901Z,102371.98
2018-10-19T00:17:00.632Z,102372.09
2018-10-19T00:18:00.066Z,102371.55
2018-10-19T00:19:01.361Z,102371.74
2018-10-19T00:19:10.096Z,102370.34
2018-10-19T00:20:11.416Z,102369.74
2018-10-19T00:21:12.039Z,102370.00
2018-10-19T00:22:11.687Z,102369.74
2018-10-19T00:23:11.773Z,102369.52
2018-10-19T00:24:12.168Z,102369.37
2018-10-19T00:25:13.477Z,102369.11
2018-10-19T00:26:13.296Z,102369.56
2018-10-19T00:27:15.726Z,102369.16
2018-10-19T00:28:14.065Z,102369.10
2018-10-19T00:29:15.526Z,102369.27
2018-10-19T00:30:15.072Z,102368.28
2018-10-19T00:31:16.360Z,102368.02
2018-10-19T00:32:17.035Z,102367.34
2018-10-19T00:33:16.574Z,102367.67
2018-10-19T00:34:17.879Z,102367.70
2018-10-19T00:35:18.171Z,102367.47
2018-10-19T00:36:18.826Z,102366.88
2018-10-19T00:37:19.115Z,102366.47
2018-10-19T00:38:19.699Z,102366.16
2018-10-19T00:39:20.051Z,102366.08
2018-10-19T00:40:20.583Z,102365.73
2018-10-19T00:41:19.927Z,102365.17
2018-10-19T00:42:21.316Z,102365.02
2018-10-19T00:43:21.949Z,102364.96
2018-10-19T00:44:22.753Z,102364.73
2018-10-19T00:45:23.150Z,102365.13
2018-10-19T00:46:23.747Z,102365.66
2018-10-19T00:47:24.102Z,102365.59
2018-10-19T00:48:24.729Z,102365.95
2018-10-19T00:49:25.303Z,102365.89
2018-10-19T00:50:25.856Z,102365.85
2018-10-19T00:51:26.181Z,102365.87
2018-10-19T00:52:26.813Z,102365.64
2018-10-19T00:53:27.213Z,102365.23
2018-10-19T00:54:27.523Z,102364.61
2018-10-19T00:55:28.409Z,102364.32
2018-10-19T00:56:28.969Z,102364.42
2018-10-19T00:57:29.322Z,102363.62
2018-10-19T00:58:29.388Z,102363.81
2018-10-19T00:59:29.781Z,102363.41
2018-10-19T01:00:30.285Z,102363.35
2018-10-19T01:01:30.644Z,102363.03
2018-10-19T01:02:31.162Z,102363.17
2018-10-19T01:03:31.549Z,102363.10
2018-10-19T01:04:31.916Z,102362.81
2018-10-19T01:05:32.274Z,102362.49
2018-10-19T01:06:32.657Z,102362.13
2018-10-19T01:07:33.223Z,102361.63
2018-10-19T01:08:33.570Z,102361.77
2018-10-19T01:09:33.875Z,102361.13
2018-10-19T01:10:34.202Z,102361.00
2018-10-19T01:10:44.324Z,102357.38
2018-10-19T01:11:45.566Z,102357.16
2018-10-19T01:12:45.904Z,102357.66
2018-10-19T01:13:46.411Z,102358.08
2018-10-19T01:14:46.666Z,102358.24
2018-10-19T01:15:46.984Z,102358.69
2018-10-19T01:16:47.401Z,102359.11
2018-10-19T01:17:47.778Z,102359.72
2018-10-19T01:18:48.079Z,102360.34
2018-10-19T01:19:48.480Z,102360.52
2018-10-19T01:20:47.779Z,102360.97
2018-10-19T01:21:49.285Z,102361.33
2018-10-19T01:22:49.346Z,102361.27
2018-10-19T01:23:49.940Z,102361.39
2018-10-19T01:24:50.275Z,102361.58
2018-10-19T01:25:50.850Z,102361.70
2018-10-19T01:26:50.306Z,102361.64
2018-10-19T01:27:52.661Z,102362.25
2018-10-19T01:28:51.972Z,102362.30
2018-10-19T01:29:52.568Z,102362.56
2018-10-19T01:30:53.025Z,102362.92
2018-10-19T01:31:53.366Z,102362.89
2018-10-19T01:32:53.944Z,102362.98
2018-10-19T01:33:54.422Z,102362.92
2018-10-19T01:34:54.773Z,102363.44
2018-10-19T01:35:54.350Z,102363.41
2018-10-19T01:36:55.729Z,102364.02
2018-10-19T01:37:56.057Z,102364.62
2018-10-19T01:38:56.468Z,102364.66
2018-10-19T01:39:55.686Z,102365.27
2018-10-19T01:40:57.269Z,102365.23
2018-10-19T01:41:56.480Z,102365.59
2018-10-19T01:42:57.719Z,102365.80
2018-10-19T01:43:58.006Z,102366.41
2018-10-19T01:44:58.434Z,102366.88
2018-10-19T01:45:58.697Z,102367.22
2018-10-19T01:46:59.263Z,102367.78
2018-10-19T01:47:58.516Z,102367.88
2018-10-19T01:49:00.187Z,102367.97
2018-10-19T01:50:00.543Z,102368.33
2018-10-19T01:51:00.949Z,102368.80
2018-10-19T01:52:00.152Z,102368.89
2018-10-19T01:53:01.691Z,102368.94
2018-10-19T01:54:01.010Z,102368.87
2018-10-19T01:55:02.366Z,102369.39
2018-10-19T01:56:02.687Z,102369.70
2018-10-19T01:57:03.071Z,102369.37
2018-10-19T01:58:02.352Z,102369.47
2018-10-19T01:59:03.918Z,102369.86
2018-10-19T02:00:03.337Z,102370.05
2018-10-19T02:01:04.856Z,102369.72
2018-10-19T02:02:05.169Z,102369.40
2018-10-19T02:03:05.587Z,102369.59
2018-10-19T02:04:04.956Z,102369.44
2018-10-19T02:04:13.045Z,102371.33
2018-10-19T02:05:14.388Z,102370.93
2018-10-19T02:06:13.616Z,102371.18
2018-10-19T02:07:14.958Z,102371.68
2018-10-19T02:08:15.344Z,102372.03
2018-10-19T02:09:15.637Z,102372.55
2018-10-19T02:10:16.516Z,102372.77
2018-10-19T02:11:16.871Z,102372.96
2018-10-19T02:12:17.209Z,102372.98
2018-10-19T02:13:17.501Z,102373.33
2018-10-19T02:14:17.822Z,102373.59
2018-10-19T02:15:18.289Z,102373.69
2018-10-19T02:16:17.592Z,102374.33
2018-10-19T02:17:18.891Z,102374.67
2018-10-19T02:18:19.173Z,102375.14
2018-10-19T02:19:19.477Z,102375.99
2018-10-19T02:20:19.758Z,102377.12
2018-10-19T02:21:20.177Z,102377.84
2018-10-19T02:22:20.522Z,102378.87
2018-10-19T02:23:20.797Z,102379.64
2018-10-19T02:24:21.160Z,102379.66
2018-10-19T02:25:21.826Z,102380.02
2018-10-19T02:26:22.167Z,102380.80
2018-10-19T02:27:22.847Z,102381.15
2018-10-19T02:28:23.185Z,102381.67
2018-10-19T02:29:23.549Z,102382.45
2018-10-19T02:30:23.891Z,102383.14
2018-10-19T02:31:24.439Z,102383.49
2018-10-19T02:32:25.010Z,102383.79
2018-10-19T02:33:25.348Z,102384.22
2018-10-19T02:34:25.640Z,102384.17
2018-10-19T02:35:26.006Z,102384.78
2018-10-19T02:36:27.510Z,102384.89
2018-10-19T02:37:26.775Z,102385.27
2018-10-19T02:38:27.372Z,102385.45
2018-10-19T02:39:27.830Z,102385.97
2018-10-19T02:40:28.245Z,102386.44
2018-10-19T02:41:28.868Z,102386.53
2018-10-19T02:42:29.262Z,102386.45
2018-10-19T02:43:29.680Z,102386.58
2018-10-19T02:44:30.030Z,102386.25
2018-10-19T02:45:30.324Z,102386.20
2018-10-19T02:46:30.722Z,102386.30
2018-10-19T02:47:31.208Z,102386.56
2018-10-19T02:48:31.518Z,102386.69
2018-10-19T02:49:31.975Z,102386.70
2018-10-19T02:50:32.313Z,102386.83
2018-10-19T02:50:41.197Z,102384.38
2018-10-19T02:51:41.795Z,102383.78
2018-10-19T02:52:42.093Z,102384.06
2018-10-19T02:53:42.364Z,102384.73
2018-10-19T02:54:42.683Z,102384.81
2018-10-19T02:55:43.079Z,102385.23
2018-10-19T02:56:43.640Z,102385.52
2018-10-19T02:57:43.968Z,102385.73
2018-10-19T02:58:44.232Z,102386.16
2018-10-19T02:59:44.708Z,102385.83
2018-10-19T03:00:45.060Z,102386.00
2018-10-19T03:01:45.579Z,102386.16
2018-10-19T03:02:45.851Z,102386.16
2018-10-19T03:03:46.315Z,102386.67
2018-10-19T03:04:46.831Z,102386.58
2018-10-19T03:05:47.366Z,102387.59
2018-10-19T03:06:47.842Z,102387.79
2018-10-19T03:07:48.283Z,102388.73
2018-10-19T03:08:48.738Z,102389.64
2018-10-19T03:09:49.097Z,102390.17
2018-10-19T03:10:49.648Z,102390.93
2018-10-19T03:11:48.906Z,102391.69
2018-10-19T03:12:50.221Z,102392.63
2018-10-19T03:13:50.638Z,102393.32
2018-10-19T03:14:51.031Z,102393.50
2018-10-19T03:15:51.466Z,102394.45
2018-10-19T03:16:52.077Z,102394.97
2018-10-19T03:17:51.382Z,102395.66
2018-10-19T03:18:53.154Z,102396.27
2018-10-19T03:19:53.778Z,102397.12
2018-10-19T03:20:54.393Z,102397.92
2018-10-19T03:21:53.737Z,102398.77
2018-10-19T03:22:55.168Z,102398.70
2018-10-19T03:23:55.677Z,102398.95
2018-10-19T03:24:56.033Z,102399.25
2018-10-19T03:25:56.484Z,102398.92
2018-10-19T03:26:56.866Z,102398.53
2018-10-19T03:27:57.434Z,102398.20
2018-10-19T03:28:57.995Z,102398.41
2018-10-19T03:29:57.768Z,102398.84
2018-10-19T03:30:59.196Z,102398.88
2018-10-19T03:31:58.425Z,102399.30
2018-10-19T03:32:59.946Z,102398.80
2018-10-19T03:33:59.215Z,102399.25
2018-10-19T03:35:00.580Z,102399.52
2018-10-19T03:35:59.894Z,102399.36
2018-10-19T03:37:01.602Z,102399.30
2018-10-19T03:38:02.013Z,102399.53
2018-10-19T03:39:02.377Z,102399.55
2018-10-19T03:40:01.961Z,102399.59
2018-10-19T03:41:03.314Z,102399.77
2018-10-19T03:42:03.649Z,102399.95
2018-10-19T03:42:16.777Z,102406.25
2018-10-19T03:43:15.075Z,102405.83
2018-10-19T03:44:15.419Z,102406.08
2018-10-19T03:45:15.851Z,102405.66
2018-10-19T03:46:15.096Z,102405.47
2018-10-19T03:47:16.812Z,102405.40
2018-10-19T03:48:16.187Z,102406.05
2018-10-19T03:49:17.457Z,102405.71
2018-10-19T03:50:16.719Z,102406.39
2018-10-19T03:51:18.101Z,102406.20
2018-10-19T03:52:17.294Z,102406.10
2018-10-19T03:53:18.762Z,102405.78
2018-10-19T03:54:18.033Z,102405.92
2018-10-19T03:55:19.305Z,102406.10
2018-10-19T03:56:19.991Z,102405.74
2018-10-19T03:57:20.417Z,102405.47
2018-10-19T03:58:20.801Z,102405.06
2018-10-19T03:59:21.254Z,102404.73
2018-10-19T04:00:21.532Z,102403.95
2018-10-19T04:01:22.321Z,102403.70
2018-10-19T04:02:22.602Z,102403.44
2018-10-19T04:03:22.983Z,102403.50
2018-10-19T04:04:22.389Z,102403.48
2018-10-19T04:05:23.883Z,102404.09
2018-10-19T04:06:24.181Z,102404.66
2018-10-19T04:07:24.573Z,102404.75
2018-10-19T04:08:24.932Z,102405.15
2018-10-19T04:09:25.292Z,102404.90
2018-10-19T04:10:25.685Z,102405.58
2018-10-19T04:11:26.181Z,102405.98
2018-10-19T04:12:26.521Z,102406.33
2018-10-19T04:13:27.350Z,102406.16
2018-10-19T04:14:27.880Z,102406.34
2018-10-19T04:15:28.239Z,102406.31
2018-10-19T04:16:28.537Z,102406.66
2018-10-19T04:17:28.892Z,102406.23
2018-10-19T04:18:29.157Z,102406.41
2018-10-19T04:19:29.523Z,102406.06
2018-10-19T04:20:31.046Z,102406.48
2018-10-19T04:21:30.515Z,102407.16
2018-10-19T04:22:33.649Z,102407.27
2018-10-19T04:23:31.266Z,102407.00
2018-10-19T04:24:31.630Z,102407.53
2018-10-19T04:25:32.135Z,102407.80
2018-10-19T04:26:32.413Z,102408.38
2018-10-19T04:27:33.084Z,102408.14
2018-10-19T04:28:32.306Z,102408.41
2018-10-19T04:29:33.720Z,102409.02
2018-10-19T04:30:34.031Z,102409.34
2018-10-19T04:30:43.066Z,102416.91
2018-10-19T04:31:43.292Z,102416.64
2018-10-19T04:32:43.610Z,102416.92
2018-10-19T04:33:43.994Z,102417.42
2018-10-19T04:34:44.335Z,102417.69
2018-10-19T04:35:44.600Z,102417.95
2018-10-19T04:36:45.093Z,102418.56
2018-10-19T04:37:45.562Z,102418.63
2018-10-19T04:38:45.896Z,102419.16
2018-10-19T04:39:47.253Z,102419.09
2018-10-19T04:40:46.556Z,102419.36
2018-10-19T04:41:47.302Z,102419.20
2018-10-19T04:42:46.508Z,102419.72
2018-10-19T04:43:47.909Z,102419.78
2018-10-19T04:44:48.184Z,102420.39
2018-10-19T04:45:48.496Z,102420.48
2018-10-19T04:46:48.788Z,102420.84
2018-10-19T04:47:49.300Z,102421.09
2018-10-19T04:48:48.405Z,102421.53
2018-10-19T04:49:49.700Z,102421.86
2018-10-19T04:50:50.035Z,102422.05
2018-10-19T04:51:50.416Z,102422.04
2018-10-19T04:52:50.900Z,102422.91
2018-10-19T04:53:51.251Z,102423.40
2018-10-19T04:54:50.477Z,102423.67
2018-10-19T04:55:51.906Z,102423.86
2018-10-19T04:56:52.248Z,102424.44
2018-10-19T04:57:52.750Z,102424.35
2018-10-19T04:58:53.077Z,102424.59
2018-10-19T04:59:53.417Z,102425.19
2018-10-19T05:00:53.959Z,102426.05
2018-10-19T05:01:54.214Z,102426.36
2018-10-19T05:02:54.861Z,102426.94
2018-10-19T05:03:54.428Z,102427.44
2018-10-19T05:04:55.774Z,102427.84
2018-10-19T05:05:56.101Z,102429.00
2018-10-19T05:06:55.424Z,102429.69
2018-10-19T05:07:56.970Z,102430.01
2018-10-19T05:08:56.210Z,102430.67
2018-10-19T05:09:57.487Z,102430.85
2018-10-19T05:10:57.835Z,102430.75
2018-10-19T05:11:57.210Z,102431.41
2018-10-19T05:12:58.913Z,102431.48
2018-10-19T05:13:58.182Z,102431.55
2018-10-19T05:14:58.536Z,102431.54
2018-10-19T05:15:59.782Z,102432.12
2018-10-19T05:17:00.182Z,102432.45
2018-10-19T05:17:59.619Z,102432.95
2018-10-19T05:19:00.973Z,102433.19
2018-10-19T05:20:01.358Z,102433.16
2018-10-19T05:21:01.910Z,102433.84
2018-10-19T05:22:02.452Z,102433.66
2018-10-19T05:22:11.168Z,102432.45
2018-10-19T05:23:11.604Z,102432.39
2018-10-19T05:24:11.308Z,102432.95
2018-10-19T05:25:12.608Z,102433.46
2018-10-19T05:26:12.942Z,102433.46
2018-10-19T05:27:12.457Z,102433.97
2018-10-19T05:28:12.939Z,102434.56
2018-10-19T05:29:13.693Z,102434.73
2018-10-19T05:30:13.959Z,102435.16
2018-10-19T05:31:15.618Z,102435.16
2018-10-19T05:32:16.034Z,102435.32
2018-10-19T05:33:15.212Z,102435.75
2018-10-19T05:34:16.552Z,102435.58
2018-10-19T05:35:16.957Z,102435.30
2018-10-19T05:36:16.530Z,102434.89
2018-10-19T05:37:18.459Z,102434.98
2018-10-19T05:38:19.919Z,102434.64
2018-10-19T05:39:19.560Z,102434.89
2018-10-19T05:40:19.923Z,102434.39
2018-10-19T05:41:20.505Z,102434.22
2018-10-19T05:42:20.902Z,102434.22
2018-10-19T05:43:21.447Z,102434.45
2018-10-19T05:44:21.746Z,102434.37
2018-10-19T05:45:22.071Z,102434.11
2018-10-19T05:46:22.495Z,102434.45
2018-10-19T05:47:22.826Z,102434.95
2018-10-19T05:48:23.510Z,102435.06
2018-10-19T05:49:23.821Z,102435.57
2018-10-19T05:50:24.152Z,102436.13
2018-10-19T05:51:24.548Z,102436.13
2018-10-19T05:52:25.112Z,102436.14
2018-10-19T05:53:25.399Z,102436.63
2018-10-19T05:54:25.718Z,102437.14
2018-10-19T05:55:26.241Z,102437.63
2018-10-19T05:56:26.579Z,102438.31
2018-10-19T05:57:27.251Z,102438.97
2018-10-19T05:58:27.578Z,102439.14
2018-10-19T05:59:27.906Z,102439.63
2018-10-19T06:00:28.266Z,102440.54
2018-10-19T06:01:28.612Z,102440.72
2018-10-19T06:02:29.101Z,102441.55
2018-10-19T06:03:28.539Z,102441.79
2018-10-19T06:04:30.026Z,102442.54
2018-10-19T06:05:30.585Z,102442.75
2018-10-19T06:06:30.978Z,102442.92
2018-10-19T06:07:31.327Z,102443.66
2018-10-19T06:08:31.775Z,102443.53
2018-10-19T06:09:32.093Z,102444.03
2018-10-19T06:10:32.471Z,102444.59
2018-10-19T06:11:32.836Z,102445.06
2018-10-19T06:12:33.119Z,102445.58
2018-10-19T06:13:33.511Z,102446.55
2018-10-19T06:14:32.753Z,102446.97
2018-10-19T06:14:41.447Z,102456.09
2018-10-19T06:15:42.705Z,102455.84
2018-10-19T06:16:43.027Z,102455.67
2018-10-19T06:17:43.180Z,102455.77
2018-10-19T06:18:43.627Z,102455.98
2018-10-19T06:19:44.163Z,102456.00
2018-10-19T06:20:44.767Z,102455.83
2018-10-19T06:21:45.180Z,102455.91
2018-10-19T06:22:45.506Z,102456.33
2018-10-19T06:23:46.189Z,102456.59
2018-10-19T06:24:46.552Z,102457.25
2018-10-19T06:25:47.179Z,102457.81
2018-10-19T06:26:46.582Z,102458.00
2018-10-19T06:27:48.015Z,102458.31
2018-10-19T06:28:48.423Z,102458.83
2018-10-19T06:29:48.869Z,102458.97
2018-10-19T06:30:49.186Z,102459.89
2018-10-19T06:31:49.524Z,102460.66
2018-10-19T06:32:49.956Z,102461.41
2018-10-19T06:33:50.567Z,102462.14
2018-10-19T06:34:50.074Z,102462.45
2018-10-19T06:35:51.411Z,102462.80
2018-10-19T06:36:52.019Z,102464.14
2018-10-19T06:37:52.476Z,102464.88
2018-10-19T06:38:52.838Z,102465.36
2018-10-19T06:39:53.209Z,102466.14
2018-10-19T06:40:53.862Z,102467.05
2018-10-19T06:41:53.102Z,102467.54
2018-10-19T06:42:54.646Z,102468.20
2018-10-19T06:43:55.197Z,102469.38
2018-10-19T06:44:55.498Z,102469.36
2018-10-19T06:45:56.139Z,102470.41
2018-10-19T06:46:56.916Z,102470.41
2018-10-19T06:47:57.206Z,102470.81
2018-10-19T06:48:57.603Z,102471.45
2018-10-19T06:49:57.038Z,102471.53
2018-10-19T06:50:58.347Z,102472.59
2018-10-19T06:51:58.673Z,102472.50
2018-10-19T06:52:59.026Z,102473.41
2018-10-19T06:53:58.250Z,102473.53
2018-10-19T06:54:59.593Z,102473.70
2018-10-19T06:55:59.932Z,102473.83
2018-10-19T06:56:59.533Z,102474.13
2018-10-19T06:58:01.064Z,102474.13
2018-10-19T06:59:01.554Z,102473.92
2018-10-19T07:00:00.824Z,102473.66
2018-10-19T07:01:02.179Z,102474.55
2018-10-19T07:02:01.613Z,102474.30
2018-10-19T07:03:01.891Z,102474.59
2018-10-19T07:04:03.180Z,102475.56
2018-10-19T07:05:03.619Z,102476.07
2018-10-19T07:06:02.954Z,102476.88
2018-10-19T07:07:03.241Z,102477.37
2018-10-19T07:07:11.831Z,102486.45
2018-10-19T07:08:13.260Z,102486.02
2018-10-19T07:09:12.504Z,102486.70
2018-10-19T07:10:13.867Z,102487.21
2018-10-19T07:11:14.289Z,102487.04
2018-10-19T07:12:13.645Z,102487.30
2018-10-19T07:13:13.820Z,102487.30
2018-10-19T07:14:15.250Z,102487.55
2018-10-19T07:15:14.502Z,102487.45
2018-10-19T07:16:15.828Z,102487.45
2018-10-19T07:17:16.308Z,102487.20
2018-10-19T07:18:15.581Z,102487.52
2018-10-19T07:19:16.881Z,102487.44
2018-10-19T07:20:17.275Z,102487.58
2018-10-19T07:21:17.577Z,102488.16
2018-10-19T07:22:17.830Z,102488.25
2018-10-19T07:23:18.115Z,102488.74
2018-10-19T07:24:18.408Z,102488.80
2018-10-19T07:25:18.826Z,102489.55
2018-10-19T07:26:19.159Z,102490.22
2018-10-19T07:27:19.525Z,102490.80
2018-10-19T07:28:19.778Z,102491.88
2018-10-19T07:29:20.351Z,102492.09
2018-10-19T07:30:20.784Z,102492.84
2018-10-19T07:31:21.203Z,102493.15
2018-10-19T07:32:21.543Z,102493.45
2018-10-19T07:33:21.830Z,102494.12
2018-10-19T07:34:22.365Z,102494.41
2018-10-19T07:35:22.698Z,102495.47
2018-10-19T07:36:23.193Z,102496.20
2018-10-19T07:37:22.502Z,102496.70
2018-10-19T07:38:23.855Z,102497.41
2018-10-19T07:39:24.245Z,102498.59
2018-10-19T07:40:24.548Z,102498.80
2018-10-19T07:41:24.926Z,102499.22
2018-10-19T07:42:25.486Z,102499.60
2018-10-19T07:43:24.793Z,102500.67
2018-10-19T07:44:26.415Z,102501.39
2018-10-19T07:45:26.863Z,102502.36
2018-10-19T07:46:27.223Z,102502.58
2018-10-19T07:47:27.633Z,102502.66
2018-10-19T07:48:26.955Z,102503.10
2018-10-19T07:49:27.593Z,102503.52
2018-10-19T07:50:30.184Z,102503.45
2018-10-19T07:51:29.928Z,102503.75
2018-10-19T07:52:30.423Z,102504.48
2018-10-19T07:53:30.810Z,102504.54
2018-10-19T07:54:31.224Z,102505.75
2018-10-19T07:55:30.544Z,102506.38
2018-10-19T07:56:31.808Z,102507.25
2018-10-19T07:57:32.511Z,102507.70
2018-10-19T07:58:32.892Z,102508.33
2018-10-19T07:59:33.694Z,102509.42
2018-10-19T07:59:42.825Z,102529.47
2018-10-19T08:00:43.138Z,102528.36
2018-10-19T08:01:42.413Z,102528.33
2018-10-19T08:02:43.748Z,102527.50
2018-10-19T08:03:44.020Z,102527.30
2018-10-19T08:04:44.396Z,102526.80
2018-10-19T08:05:44.833Z,102526.61
2018-10-19T08:06:45.629Z,102526.52
2018-10-19T08:07:46.133Z,102527.00
2018-10-19T08:08:46.524Z,102527.09
2018-10-19T08:09:46.582Z,102527.09
2018-10-19T08:10:46.792Z,102527.35
2018-10-19T08:11:46.111Z,102527.27
2018-10-19T08:12:47.681Z,102527.24
2018-10-19T08:13:48.222Z,102527.55
2018-10-19T08:14:48.477Z,102527.13
2018-10-19T08:15:48.764Z,102527.56
2018-10-19T08:16:49.127Z,102526.97
2018-10-19T08:17:50.051Z,102527.20
2018-10-19T08:18:50.317Z,102526.95
2018-10-19T08:19:51.325Z,102526.86
2018-10-19T08:20:51.607Z,102526.61
2018-10-19T08:21:52.234Z,102526.76
2018-10-19T08:22:52.581Z,102526.42
2018-10-19T08:23:52.883Z,102526.40
2018-10-19T08:24:53.155Z,102525.98
2018-10-19T08:25:53.520Z,102526.54
2018-10-19T08:26:53.824Z,102526.54
2018-10-19T08:27:54.198Z,102526.80
2018-10-19T08:28:54.659Z,102526.46
2018-10-19T08:29:55.014Z,102527.14
2018-10-19T08:30:55.311Z,102527.14
2018-10-19T08:31:55.535Z,102527.05
2018-10-19T08:32:54.853Z,102526.83
2018-10-19T08:33:56.355Z,102527.16
2018-10-19T08:34:56.677Z,102527.58
2018-10-19T08:35:57.267Z,102527.83
2018-10-19T08:36:59.009Z,102528.27
2018-10-19T08:37:57.645Z,102528.41
2018-10-19T08:38:59.206Z,102528.41
2018-10-19T08:40:09.408Z,102529.16
2018-10-19T08:40:59.895Z,102529.02
2018-10-19T08:41:59.645Z,102529.48
2018-10-19T08:43:00.904Z,102529.62
2018-10-19T08:44:00.152Z,102529.07
2018-10-19T08:45:02.089Z,102529.68
2018-10-19T08:46:01.731Z,102529.73
2018-10-19T08:47:02.110Z,102530.12
2018-10-19T08:48:02.402Z,102530.31
2018-10-19T08:48:11.344Z,102540.36
2018-10-19T08:49:14.840Z,102539.94
2018-10-19T08:50:11.958Z,102539.61
2018-10-19T08:51:13.434Z,102539.09
2018-10-19T08:52:12.888Z,102538.98
2018-10-19T08:53:14.349Z,102538.73
2018-10-19T08:54:13.564Z,102538.11
2018-10-19T08:55:14.929Z,102537.35
2018-10-19T08:56:14.220Z,102537.27
2018-10-19T08:57:15.554Z,102536.39
2018-10-19T08:58:14.920Z,102535.47
2018-10-19T08:59:18.443Z,102535.08
2018-10-19T09:00:16.767Z,102534.38
2018-10-19T09:01:16.294Z,102533.26
2018-10-19T09:02:17.752Z,102533.46
2018-10-19T09:03:18.102Z,102533.25
2018-10-19T09:04:22.389Z,102532.83
2018-10-19T09:05:18.846Z,102532.63
2018-10-19T09:06:17.772Z,102532.19
2018-10-19T09:07:19.204Z,102531.98
2018-10-19T09:08:19.777Z,102532.17
2018-10-19T09:09:20.443Z,102531.80
2018-10-19T09:10:20.701Z,102532.39
2018-10-19T09:11:21.126Z,102531.82
2018-10-19T09:12:23.487Z,102531.51
2018-10-19T09:13:20.654Z,102531.41
2018-10-19T09:14:22.026Z,102531.17
2018-10-19T09:15:23.006Z,102531.19
2018-10-19T09:16:22.277Z,102531.13
2018-10-19T09:17:23.643Z,102531.06
2018-10-19T09:18:23.891Z,102531.30
2018-10-19T09:19:23.263Z,102531.45
2018-10-19T09:20:27.644Z,102530.53
2018-10-19T09:21:24.953Z,102530.28
2018-10-19T09:22:25.257Z,102529.52
2018-10-19T09:23:25.909Z,102529.30
2018-10-19T09:24:25.956Z,102528.54
2018-10-19T09:25:26.434Z,102527.98
2018-10-19T09:26:26.931Z,102526.62
2018-10-19T09:27:27.048Z,102525.80
2018-10-19T09:28:27.317Z,102524.86
2018-10-19T09:29:27.742Z,102524.02
2018-10-19T09:30:27.389Z,102523.11
2018-10-19T09:31:28.762Z,102522.28
2018-10-19T09:32:29.597Z,102521.54
2018-10-19T09:33:28.892Z,102520.74
2018-10-19T09:34:30.423Z,102519.74
2018-10-19T09:35:30.937Z,102518.95
2018-10-19T09:36:30.450Z,102517.89
2018-10-19T09:37:30.471Z,102517.26
2018-10-19T09:38:31.898Z,102516.83
2018-10-19T09:39:32.239Z,102515.89
2018-10-19T09:40:32.568Z,102515.74
2018-10-19T09:41:34.234Z,102515.00
2018-10-19T09:42:52.085Z,102514.80
2018-10-19T09:43:32.997Z,102514.02
2018-10-19T09:44:16.503Z,102505.88
2018-10-19T09:45:15.050Z,102505.32
2018-10-19T09:46:12.029Z,102505.45
2018-10-19T09:47:13.809Z,102505.45
2018-10-19T09:48:13.335Z,102505.45
2018-10-19T09:49:13.669Z,102505.71
2018-10-19T09:50:13.977Z,102505.54
2018-10-19T09:51:15.462Z,102505.88
2018-10-19T09:52:14.393Z,102505.20
2018-10-19T09:53:15.804Z,102504.98
2018-10-19T09:54:15.198Z,102504.89
2018-10-19T09:55:15.775Z,102505.03
2018-10-19T09:56:16.167Z,102504.48
2018-10-19T09:57:16.595Z,102503.83
2018-10-19T09:58:16.997Z,102503.50
2018-10-19T09:59:18.341Z,102503.30
2018-10-19T10:00:17.647Z,102502.89
2018-10-19T10:01:19.071Z,102503.02
2018-10-19T10:02:19.643Z,102502.10
2018-10-19T10:03:19.998Z,102501.64
2018-10-19T10:06:03.080Z,102486.81
2018-10-19T10:06:59.317Z,102486.89
2018-10-19T10:07:59.686Z,102487.49
2018-10-19T10:08:59.945Z,102487.41
2018-10-19T10:10:00.249Z,102487.58
2018-10-19T10:11:01.660Z,102487.61
2018-10-19T10:12:00.992Z,102487.27
2018-10-19T10:13:02.495Z,102487.19
2018-10-19T10:14:01.859Z,102487.44
2018-10-19T10:15:03.280Z,102487.61
2018-10-19T10:16:02.512Z,102487.52
2018-10-19T10:17:04.469Z,102487.36
2018-10-19T10:18:03.676Z,102486.50
2018-10-19T10:19:05.101Z,102486.59
2018-10-19T10:20:04.330Z,102486.42
2018-10-19T10:21:05.771Z,102486.05
2018-10-19T10:22:06.214Z,102485.88
2018-10-19T10:23:05.543Z,102486.01
2018-10-19T10:24:06.820Z,102485.86
2018-10-19T10:25:07.117Z,102485.45
2018-10-19T10:26:07.489Z,102485.66
2018-10-19T10:27:07.778Z,102485.34
2018-10-19T10:28:08.623Z,102484.97
2018-10-19T10:29:10.587Z,102484.58
2018-10-19T10:30:08.404Z,102484.61
2018-10-19T10:31:09.777Z,102484.16
2018-10-19T10:32:09.144Z,102482.98
2018-10-19T10:33:09.797Z,102482.05
2018-10-19T10:34:11.410Z,102481.44
2018-10-19T10:35:10.631Z,102480.83
2018-10-19T10:36:11.937Z,102479.88
2018-10-19T10:37:12.413Z,102479.19
2018-10-19T10:38:11.813Z,102478.41
2018-10-19T10:39:13.245Z,102477.79
2018-10-19T10:40:12.708Z,102477.14
2018-10-19T10:41:13.082Z,102476.61
2018-10-19T10:42:14.370Z,102476.30
2018-10-19T10:43:14.762Z,102475.98
2018-10-19T10:44:14.014Z,102475.38
2018-10-19T10:45:15.459Z,102475.39
2018-10-19T10:46:15.867Z,102474.97
2018-10-19T10:47:14.984Z,102474.01
2018-10-19T10:48:16.297Z,102473.33
2018-10-19T10:49:16.888Z,102472.31
2018-10-19T10:50:16.442Z,102471.98
2018-10-19T10:51:17.871Z,102471.27
2018-10-19T10:52:18.160Z,102470.12
2018-10-19T10:53:18.872Z,102469.17
2018-10-19T10:54:19.730Z,102468.84
2018-10-19T10:55:51.154Z,102451.20
2018-10-19T10:56:52.372Z,102451.55
2018-10-19T10:57:51.669Z,102451.80
2018-10-19T10:58:51.883Z,102451.89
2018-10-19T10:59:52.378Z,102451.80
2018-10-19T11:00:52.700Z,102451.80
2018-10-19T11:01:53.025Z,102451.77
2018-10-19T11:02:53.917Z,102451.64
2018-10-19T11:03:54.525Z,102451.47
2018-10-19T11:04:55.085Z,102451.47
2018-10-19T11:05:55.758Z,102451.13
2018-10-19T11:06:56.326Z,102451.26
2018-10-19T11:07:55.708Z,102450.91
2018-10-19T11:08:57.330Z,102450.70
2018-10-19T11:09:57.794Z,102450.37
2018-10-19T11:10:57.174Z,102449.99
2018-10-19T11:11:58.408Z,102449.83
2018-10-19T11:12:58.857Z,102449.53
2018-10-19T11:14:01.070Z,102448.77
2018-10-19T11:14:59.460Z,102448.34
2018-10-19T11:15:59.844Z,102447.63
2018-10-19T11:16:59.571Z,102446.95
2018-10-19T11:18:00.858Z,102446.36
2018-10-19T11:19:01.195Z,102445.05
2018-10-19T11:20:01.743Z,102444.02
2018-10-19T11:21:02.029Z,102443.27
2018-10-19T11:22:02.754Z,102442.11